Time;durP1;ratioP1;P1;durP2;ratioP2;P2;SDS_P1;SDS_P2;PMS_P1;PMS_P2;Temp;Humidity;BMP_temperature;BMP_pressure;BME280_temperature;BME280_humidity;BME280_pressure;Samples;Min_cycle;Max_cycle;Signal;HPM_P1;HPM_P2
2022/11/04 00:01:49;;;;;;;;;3.00;2.50;;;;;11.57;78.86;98424.56;5138532;27;8814;-57
2022/11/04 00:04:17;;;;;;;;;0.25;0.25;;;;;11.50;78.65;98420.91;5138926;27;8818;-57
2022/11/04 00:06:44;;;;;;;;;0.00;0.00;;;;;11.41;78.76;98428.06;5137676;27;8890;-57
2022/11/04 00:09:12;;;;;;;;;2.00;1.00;;;;;11.31;79.01;98435.38;5138602;27;8845;-57
2022/11/04 00:14:25;;;;;;;;;0.75;0.75;;;;;11.13;79.45;98436.47;5138742;27;8865;-57
2022/11/04 00:30:48;;;;;;;;;0.00;0.00;;;;;10.78;79.74;98476.66;5119263;27;8933;-58
2022/11/04 00:33:25;;;;;;;;;0.00;0.00;;;;;10.77;79.69;98485.63;5139120;27;8894;-57
2022/11/04 00:35:52;;;;;;;;;0.00;0.00;;;;;10.78;79.27;98489.97;5139260;27;8903;-58
2022/11/04 00:38:20;;;;;;;;;0.00;0.00;;;;;10.81;79.41;98493.16;5139124;27;8842;-57
2022/11/04 00:40:47;;;;;;;;;1.00;1.00;;;;;10.83;79.42;98480.50;5139587;27;8825;-57
2022/11/04 00:43:15;;;;;;;;;0.00;0.00;;;;;10.85;79.40;98481.16;5139487;27;8826;-57
2022/11/04 00:45:43;;;;;;;;;0.00;0.00;;;;;10.86;78.96;98495.31;5139350;27;8818;-57
2022/11/04 00:48:10;;;;;;;;;1.00;1.00;;;;;10.85;79.20;98491.81;5137984;27;8845;-57
2022/11/04 00:50:38;;;;;;;;;1.00;1.00;;;;;10.86;78.93;98490.00;5137094;27;8821;-56
2022/11/04 00:53:06;;;;;;;;;0.00;0.00;;;;;10.86;78.92;98488.16;5137532;27;8980;-58
2022/11/04 00:55:34;;;;;;;;;2.50;1.00;;;;;10.84;79.20;98490.16;5136858;27;8829;-57
2022/11/04 00:58:01;;;;;;;;;0.00;0.00;;;;;10.82;79.34;98496.63;5137999;27;8825;-57
2022/11/04 01:00:29;;;;;;;;;0.25;0.25;;;;;10.79;79.13;98503.13;5137432;27;8818;-58
2022/11/04 01:02:59;;;;;;;;;1.50;1.00;;;;;10.78;79.29;98505.94;5138151;27;9612;-57
2022/11/04 01:05:27;;;;;;;;;0.00;0.00;;;;;10.75;79.05;98503.56;5139042;27;8841;-58
2022/11/04 01:07:54;;;;;;;;;0.00;0.00;;;;;10.72;79.51;98504.75;5138995;27;9508;-58
2022/11/04 01:10:22;;;;;;;;;0.50;0.50;;;;;10.67;79.64;98531.00;5138789;27;8925;-58
2022/11/04 01:12:50;;;;;;;;;0.00;0.00;;;;;10.64;79.33;98536.66;5138896;27;8833;-57
2022/11/04 01:15:17;;;;;;;;;0.25;0.25;;;;;10.60;79.34;98540.59;5138783;27;8894;-57
2022/11/04 01:17:45;;;;;;;;;2.00;1.00;;;;;10.59;79.32;98554.91;5138434;27;9166;-57
2022/11/04 01:20:13;;;;;;;;;1.00;0.50;;;;;10.57;79.58;98548.06;5138648;27;8829;-58
2022/11/04 01:22:41;;;;;;;;;0.75;0.75;;;;;10.54;79.23;98543.88;5138479;27;9597;-57
2022/11/04 01:25:10;;;;;;;;;0.00;0.00;;;;;10.53;79.58;98539.56;5138892;27;8814;-57
2022/11/04 01:27:38;;;;;;;;;0.00;0.00;;;;;10.51;78.89;98544.22;5138611;27;8887;-57
2022/11/04 01:30:05;;;;;;;;;0.50;0.50;;;;;10.53;79.00;98549.34;5138220;27;8845;-57
2022/11/04 01:32:33;;;;;;;;;0.00;0.00;;;;;10.57;79.23;98548.06;5137704;27;8849;-58
2022/11/04 01:35:00;;;;;;;;;1.00;1.00;;;;;10.59;79.06;98548.75;5138984;27;8833;-57
2022/11/04 01:37:29;;;;;;;;;0.00;0.00;;;;;10.60;79.09;98555.72;5138352;27;8829;-58
2022/11/04 01:39:56;;;;;;;;;0.00;0.00;;;;;10.60;78.72;98559.25;5138517;27;8825;-58
2022/11/04 01:42:24;;;;;;;;;0.00;0.00;;;;;10.62;79.19;98559.91;5138554;27;8883;-58
2022/11/04 01:44:51;;;;;;;;;1.00;1.00;;;;;10.62;78.90;98565.22;5138423;27;8837;-58
2022/11/04 01:47:19;;;;;;;;;1.00;1.00;;;;;10.63;78.43;98564.25;5138569;27;8822;-57
2022/11/04 01:49:47;;;;;;;;;2.50;1.00;;;;;10.61;78.72;98558.25;5138369;27;8841;-58
2022/11/04 01:52:15;;;;;;;;;2.50;2.50;;;;;10.59;79.02;98562.03;5138655;27;8806;-58
2022/11/04 01:54:42;;;;;;;;;3.00;3.00;;;;;10.56;78.42;98563.19;5138817;27;8834;-57
2022/11/04 01:57:10;;;;;;;;;0.00;0.00;;;;;10.54;78.86;98569.69;5138537;27;8860;-57
2022/11/04 01:59:41;;;;;;;;;3.00;3.00;;;;;10.51;78.73;98569.97;5138319;27;8818;-57
2022/11/04 02:02:09;;;;;;;;;2.50;1.00;;;;;10.49;78.87;98563.97;5138425;27;8802;-58
2022/11/04 02:04:37;;;;;;;;;3.00;3.00;;;;;10.46;78.88;98565.13;5137721;27;8895;-57
2022/11/04 02:07:05;;;;;;;;;4.50;4.50;;;;;10.45;79.27;98571.44;5138174;27;9522;-58
2022/11/04 02:09:33;;;;;;;;;4.00;4.00;;;;;10.44;78.81;98575.09;5138189;27;8814;-58
2022/11/04 02:14:51;;;;;;;;;3.50;3.50;;;;;10.46;79.13;98583.75;5121659;27;8934;-57
2022/11/04 02:17:19;;;;;;;;;1.00;1.00;;;;;10.50;79.29;98582.47;5137797;27;9480;-57
2022/11/04 02:19:47;;;;;;;;;3.75;3.75;;;;;10.54;78.82;98581.16;5137964;27;8886;-57
2022/11/04 02:22:15;;;;;;;;;4.50;3.25;;;;;10.58;78.50;98581.69;5137562;27;8813;-58
2022/11/04 02:24:42;;;;;;;;;3.00;3.00;;;;;10.58;78.35;98585.19;5136697;27;8834;-58
2022/11/04 02:27:10;;;;;;;;;3.00;2.00;;;;;10.56;78.97;98571.16;5136663;27;8841;-58
2022/11/04 02:29:38;;;;;;;;;1.50;1.00;;;;;10.54;78.77;98575.81;5136730;27;9504;-58
2022/11/04 02:32:05;;;;;;;;;6.50;4.00;;;;;10.50;78.79;98576.28;5136476;27;8809;-57
2022/11/04 02:34:33;;;;;;;;;4.00;3.50;;;;;10.47;78.59;98577.44;5136703;27;8925;-57
2022/11/04 02:37:02;;;;;;;;;2.00;1.00;;;;;10.45;79.00;98574.09;5136820;27;8875;-58
2022/11/04 02:39:29;;;;;;;;;3.25;3.00;;;;;10.45;78.98;98565.25;5136932;27;8922;-58
2022/11/04 02:41:57;;;;;;;;;3.25;3.00;;;;;10.44;78.78;98561.78;5137041;27;8826;-58
2022/11/04 02:44:24;;;;;;;;;1.00;1.00;;;;;10.44;78.39;98564.44;5136997;27;8874;-58
2022/11/04 02:46:52;;;;;;;;;6.25;6.00;;;;;10.43;78.50;98565.44;5136840;27;8817;-58
2022/11/04 02:49:20;;;;;;;;;3.00;3.00;;;;;10.41;78.80;98569.25;5136912;27;8822;-58
2022/11/04 02:51:48;;;;;;;;;2.00;2.00;;;;;10.38;78.47;98567.72;5136730;27;8814;-58
2022/11/04 02:54:15;;;;;;;;;3.50;3.25;;;;;10.38;78.71;98570.38;5136679;27;8833;-58
2022/11/04 02:56:43;;;;;;;;;3.00;3.00;;;;;10.34;78.78;98576.16;5136749;27;8893;-58
2022/11/04 02:59:11;;;;;;;;;3.00;3.00;;;;;10.29;79.21;98579.28;5136770;27;8821;-57
2022/11/04 03:01:38;;;;;;;;;3.00;3.00;;;;;10.25;79.14;98580.56;5136829;27;8825;-57
2022/11/04 03:04:06;;;;;;;;;2.00;2.00;;;;;10.22;79.21;98583.56;5136611;27;8906;-58
2022/11/04 03:06:34;;;;;;;;;2.50;2.50;;;;;10.20;78.86;98590.00;5136564;27;8825;-57
2022/11/04 03:09:01;;;;;;;;;3.75;3.75;;;;;10.20;79.19;98590.88;5136615;27;8829;-57
2022/11/04 03:11:29;;;;;;;;;0.75;0.75;;;;;10.18;78.49;98587.50;5136488;27;8818;-57
2022/11/04 03:13:57;;;;;;;;;3.00;3.00;;;;;10.17;78.76;98595.66;5136379;27;8829;-58
2022/11/04 03:16:25;;;;;;;;;4.00;2.50;;;;;10.15;78.78;98593.13;5136370;27;8905;-58
2022/11/04 03:18:52;;;;;;;;;4.50;3.75;;;;;10.15;79.34;98597.59;5136543;27;8809;-57
2022/11/04 03:21:20;;;;;;;;;3.00;3.00;;;;;10.13;79.23;98592.47;5136734;27;8813;-58
2022/11/04 03:23:48;;;;;;;;;3.00;3.00;;;;;10.11;79.01;98597.06;5136312;27;8837;-58
2022/11/04 03:26:18;;;;;;;;;4.00;3.00;;;;;10.10;79.19;98595.41;5136156;27;8902;-58
2022/11/04 03:28:46;;;;;;;;;0.25;0.25;;;;;10.12;78.94;98598.78;5136029;27;8899;-58
2022/11/04 03:31:13;;;;;;;;;2.50;2.50;;;;;10.14;79.14;98590.63;5136126;27;8874;-58
2022/11/04 03:33:41;;;;;;;;;0.75;0.75;;;;;10.16;78.86;98589.47;5136186;27;8841;-58
2022/11/04 03:36:08;;;;;;;;;2.50;1.50;;;;;10.15;78.45;98598.44;5135523;27;8822;-58
2022/11/04 03:38:37;;;;;;;;;1.00;1.00;;;;;10.15;78.96;98598.44;5136095;27;8895;-58
2022/11/04 03:41:05;;;;;;;;;3.00;3.00;;;;;10.13;79.16;98597.78;5136228;27;8884;-58
2022/11/04 03:43:32;;;;;;;;;3.75;3.00;;;;;10.11;78.82;98604.22;5135268;27;9500;-58
2022/11/04 03:46:00;;;;;;;;;1.50;1.00;;;;;10.10;78.66;98591.91;5134178;27;8856;-57
2022/11/04 03:48:28;;;;;;;;;3.00;3.00;;;;;10.09;79.33;98603.56;5135371;27;9632;-57
2022/11/04 03:50:57;;;;;;;;;1.00;1.00;;;;;10.08;78.94;98605.38;5135235;27;8830;-58
2022/11/04 03:53:24;;;;;;;;;3.00;1.50;;;;;10.06;79.29;98610.00;5135560;27;9578;-57
2022/11/04 03:55:57;;;;;;;;;3.00;3.00;;;;;10.04;78.92;98608.47;5136201;27;8837;-58
2022/11/04 03:58:24;;;;;;;;;3.50;2.50;;;;;10.01;79.19;98616.75;5135192;27;8842;-58
2022/11/04 04:00:52;;;;;;;;;3.00;3.00;;;;;9.99;78.90;98621.34;5134957;27;8897;-58
2022/11/04 04:03:21;;;;;;;;;0.50;0.50;;;;;9.98;79.15;98614.38;5136294;27;8887;-58
2022/11/04 04:05:48;;;;;;;;;1.00;1.00;;;;;9.97;79.30;98615.34;5136430;27;8914;-58
2022/11/04 04:08:16;;;;;;;;;2.50;2.50;;;;;9.94;78.71;98624.47;5136604;27;8861;-58
2022/11/04 04:10:44;;;;;;;;;2.50;1.00;;;;;9.93;78.82;98624.63;5136013;27;8890;-57
2022/11/04 04:13:12;;;;;;;;;3.00;1.00;;;;;9.91;79.02;98626.59;5135693;27;8894;-57
2022/11/04 04:15:41;;;;;;;;;1.00;1.00;;;;;9.90;79.20;98630.22;5136170;27;8845;-58
2022/11/04 04:18:08;;;;;;;;;3.00;3.00;;;;;9.84;79.50;98639.66;5136204;27;8798;-58
2022/11/04 04:20:36;;;;;;;;;1.00;1.00;;;;;9.80;79.23;98635.59;5135708;27;8910;-58
2022/11/04 04:27:29;;;;;;;;;1.00;1.00;;;;;9.77;79.48;98633.25;5135389;27;8821;-57
2022/11/04 04:28:37;;;;;;;;;1.00;1.00;;;;;9.73;79.28;98631.06;5135446;27;8814;-58
2022/11/04 04:31:05;;;;;;;;;1.00;1.00;;;;;9.70;79.33;98628.66;5135926;27;9527;-57
2022/11/04 04:33:32;;;;;;;;;0.50;0.50;;;;;9.68;79.56;98631.50;5136357;27;8810;-57
2022/11/04 04:36:00;;;;;;;;;1.00;1.00;;;;;9.67;79.14;98627.19;5137425;27;9472;-58
2022/11/04 04:46:43;;;;;;;;;1.00;1.00;;;;;9.64;78.96;98648.72;5138959;27;8917;-58
2022/11/04 04:49:11;;;;;;;;;0.00;0.00;;;;;9.65;79.29;98645.06;5139496;27;8834;-58
2022/11/04 04:51:38;;;;;;;;;0.50;0.25;;;;;9.64;79.05;98651.38;5138981;27;8809;-58
2022/11/04 04:54:06;;;;;;;;;3.00;1.50;;;;;9.64;79.33;98648.72;5139270;27;8821;-58
2022/11/04 04:56:34;;;;;;;;;0.00;0.00;;;;;9.61;79.57;98657.00;5139201;27;8821;-58
2022/11/04 04:59:03;;;;;;;;;0.00;0.00;;;;;9.60;79.74;98657.97;5139551;27;8818;-58
2022/11/04 05:01:30;;;;;;;;;0.25;0.00;;;;;9.59;79.07;98658.97;5139365;27;8898;-58
2022/11/04 05:03:58;;;;;;;;;2.50;0.25;;;;;9.58;79.61;98673.22;5139199;27;8902;-57
2022/11/04 05:06:26;;;;;;;;;0.00;0.00;;;;;9.54;79.52;98679.81;5139311;27;9480;-58
2022/11/04 05:08:53;;;;;;;;;0.00;0.00;;;;;9.53;79.45;98686.13;5139012;27;8838;-58
2022/11/04 05:11:21;;;;;;;;;0.00;0.00;;;;;9.53;79.59;98680.81;5138834;27;8898;-58
2022/11/04 05:13:53;;;;;;;;;0.00;0.00;;;;;9.53;79.32;98680.81;5138875;27;8830;-58
2022/11/04 05:16:21;;;;;;;;;0.00;0.00;;;;;9.53;79.40;98683.47;5138626;27;8825;-57
2022/11/04 05:18:48;;;;;;;;;0.00;0.00;;;;;9.57;79.41;98698.13;5138783;27;8830;-57
2022/11/04 05:21:16;;;;;;;;;0.00;0.00;;;;;9.61;78.84;98699.50;5138563;27;8910;-58
2022/11/04 05:23:45;;;;;;;;;1.00;1.00;;;;;9.64;79.12;98698.41;5139057;27;8822;-58
2022/11/04 05:26:13;;;;;;;;;0.75;0.75;;;;;9.65;79.14;98708.84;5138112;27;8806;-58
2022/11/04 05:28:41;;;;;;;;;1.00;1.00;;;;;9.65;79.24;98700.06;5138018;27;8818;-58
2022/11/04 05:31:09;;;;;;;;;1.00;1.00;;;;;9.63;78.89;98702.03;5138146;27;8959;-58
2022/11/04 05:33:36;;;;;;;;;0.00;0.00;;;;;9.63;79.00;98702.03;5138139;27;8829;-58
2022/11/04 05:36:04;;;;;;;;;0.00;0.00;;;;;9.60;78.93;98707.63;5138037;27;8817;-57
2022/11/04 05:38:32;;;;;;;;;0.25;0.25;;;;;9.55;79.10;98713.38;5137711;27;8854;-57
2022/11/04 05:40:59;;;;;;;;;0.00;0.00;;;;;9.53;79.33;98706.53;5137472;27;8849;-58
2022/11/04 05:43:27;;;;;;;;;0.00;0.00;;;;;9.50;79.49;98701.53;5137554;27;8818;-58
2022/11/04 05:45:55;;;;;;;;;1.00;0.00;;;;;9.47;79.26;98707.97;5137801;27;8806;-57
2022/11/04 05:48:23;;;;;;;;;0.25;0.00;;;;;9.46;79.53;98705.44;5137610;27;8826;-58
2022/11/04 05:50:50;;;;;;;;;0.00;0.00;;;;;9.47;79.15;98704.44;5137732;27;8901;-58
2022/11/04 05:53:18;;;;;;;;;0.25;0.25;;;;;9.48;78.97;98709.63;5137808;27;8914;-58
2022/11/04 05:55:46;;;;;;;;;0.00;0.00;;;;;9.49;79.15;98707.81;5137884;27;8821;-58
2022/11/04 05:58:13;;;;;;;;;0.00;0.00;;;;;9.50;78.93;98702.34;5137521;27;9142;-58
2022/11/04 06:00:41;;;;;;;;;0.00;0.00;;;;;9.53;78.88;98710.03;5137077;27;8825;-58
2022/11/04 06:03:09;;;;;;;;;0.25;0.00;;;;;9.58;78.45;98709.59;5136950;27;8870;-58
2022/11/04 06:05:42;;;;;;;;;0.00;0.00;;;;;9.62;78.17;98713.63;5136535;27;8876;-58
2022/11/04 06:08:10;;;;;;;;;0.00;0.00;;;;;9.64;78.29;98720.47;5136989;27;8837;-58
2022/11/04 06:10:38;;;;;;;;;0.75;0.75;;;;;9.68;78.60;98721.88;5136779;27;8852;-58
2022/11/04 06:13:06;;;;;;;;;0.00;0.00;;;;;9.71;77.94;98724.22;5137337;27;8817;-58
2022/11/04 06:15:33;;;;;;;;;2.00;1.00;;;;;9.74;78.11;98731.94;5136537;27;8902;-58
2022/11/04 06:18:01;;;;;;;;;0.50;0.50;;;;;9.77;78.03;98731.63;5136734;27;8830;-58
2022/11/04 06:20:29;;;;;;;;;0.00;0.00;;;;;9.79;78.10;98731.47;5137210;27;8806;-58
2022/11/04 06:22:56;;;;;;;;;0.00;0.00;;;;;9.82;77.68;98731.19;5136087;27;9519;-57
2022/11/04 06:25:26;;;;;;;;;0.50;0.00;;;;;9.83;77.79;98741.66;5135368;27;8931;-58
2022/11/04 06:27:53;;;;;;;;;0.00;0.00;;;;;9.85;77.65;98739.69;5135837;27;8821;-58
2022/11/04 06:30:22;;;;;;;;;0.50;0.50;;;;;9.87;77.89;98751.00;5135194;27;8868;-59
2022/11/04 06:32:50;;;;;;;;;1.00;1.00;;;;;9.87;77.50;98753.66;5133866;27;8906;-58
2022/11/04 06:35:17;;;;;;;;;1.00;1.00;;;;;9.88;77.57;98760.66;5134053;27;8903;-58
2022/11/04 06:37:46;;;;;;;;;0.75;0.75;;;;;9.88;77.85;98771.28;5134456;27;8864;-57
2022/11/04 06:40:14;;;;;;;;;0.00;0.00;;;;;9.88;77.81;98770.47;5133664;27;8822;-59
2022/11/04 06:42:43;;;;;;;;;0.00;0.00;;;;;9.87;77.90;98776.78;5134809;27;8860;-58
2022/11/04 06:45:11;;;;;;;;;0.00;0.00;;;;;9.86;77.68;98778.59;5134721;27;8818;-58
2022/11/04 06:47:39;;;;;;;;;0.00;0.00;;;;;9.86;77.79;98769.78;5135745;27;9535;-59
2022/11/04 06:50:07;;;;;;;;;1.75;1.25;;;;;9.87;77.51;98779.44;5135117;27;8822;-58
2022/11/04 06:52:35;;;;;;;;;1.50;1.00;;;;;9.87;77.37;98780.25;5134156;27;8852;-57
2022/11/04 06:55:08;;;;;;;;;0.75;0.25;;;;;9.88;77.28;98786.44;5132797;27;8861;-58
2022/11/04 06:57:36;;;;;;;;;2.00;1.00;;;;;9.86;77.63;98783.09;5132697;27;8837;-58
2022/11/04 07:00:04;;;;;;;;;0.00;0.00;;;;;9.83;77.47;98778.03;5132348;27;8852;-59
2022/11/04 07:02:32;;;;;;;;;0.50;0.00;;;;;9.81;77.31;98780.84;5133433;27;8818;-58
2022/11/04 07:05:00;;;;;;;;;0.00;0.00;;;;;9.80;77.48;98786.31;5134133;27;8921;-58
2022/11/04 07:07:27;;;;;;;;;0.00;0.00;;;;;9.83;77.17;98794.84;5133042;27;9416;-58
2022/11/04 07:09:55;;;;;;;;;1.00;1.00;;;;;9.86;77.10;98801.69;5132609;27;8821;-58
2022/11/04 07:12:23;;;;;;;;;2.50;1.00;;;;;9.89;77.40;98804.91;5132875;27;8817;-58
2022/11/04 07:14:54;;;;;;;;;1.00;1.00;;;;;9.93;76.90;98811.59;5133020;27;8848;-58
2022/11/04 07:17:22;;;;;;;;;0.50;0.25;;;;;9.97;77.03;98813.00;5133003;27;8821;-57
2022/11/04 07:19:49;;;;;;;;;0.50;0.50;;;;;10.02;76.59;98825.84;5131950;27;8845;-58
2022/11/04 07:22:17;;;;;;;;;0.00;0.00;;;;;10.06;76.87;98833.41;5132676;27;8825;-58
2022/11/04 07:24:45;;;;;;;;;0.25;0.25;;;;;10.10;76.57;98845.41;5132280;27;8829;-58
2022/11/04 07:27:13;;;;;;;;;0.25;0.25;;;;;10.14;76.75;98845.97;5132571;27;8852;-58
2022/11/04 07:29:41;;;;;;;;;1.00;0.00;;;;;10.20;76.32;98837.41;5132870;27;8833;-58
2022/11/04 07:32:09;;;;;;;;;1.50;1.00;;;;;10.26;76.13;98836.81;5132898;27;8852;-59
2022/11/04 07:34:37;;;;;;;;;0.00;0.00;;;;;10.33;76.14;98830.75;5133303;27;8856;-59
2022/11/04 07:37:04;;;;;;;;;1.00;1.00;;;;;10.39;75.75;98818.69;5133800;27;8814;-58
2022/11/04 07:39:33;;;;;;;;;0.00;0.00;;;;;10.43;76.28;98825.38;5133555;27;8906;-59
2022/11/04 07:42:01;;;;;;;;;0.75;0.75;;;;;10.49;75.74;98825.66;5134448;27;8830;-59
2022/11/04 07:44:29;;;;;;;;;0.00;0.00;;;;;10.54;75.50;98835.84;5133276;27;8953;-59
2022/11/04 07:46:56;;;;;;;;;0.00;0.00;;;;;10.58;75.86;98835.41;5133196;27;8965;-59
2022/11/04 07:49:25;;;;;;;;;0.00;0.00;;;;;10.63;75.66;98838.44;5133898;27;8833;-58
2022/11/04 07:51:53;;;;;;;;;0.50;0.00;;;;;10.70;75.46;98838.69;5132084;27;8821;-59
2022/11/04 07:54:21;;;;;;;;;0.00;0.00;;;;;10.75;74.85;98837.25;5133244;27;8830;-59
2022/11/04 07:56:49;;;;;;;;;0.00;0.00;;;;;10.78;75.02;98842.25;5133796;27;8834;-59
2022/11/04 07:59:16;;;;;;;;;0.00;0.00;;;;;10.81;75.18;98841.97;5133525;27;8843;-59
2022/11/04 08:01:44;;;;;;;;;0.00;0.00;;;;;10.83;74.67;98840.00;5133679;27;8846;-59
2022/11/04 08:04:13;;;;;;;;;0.50;0.00;;;;;10.85;74.90;98847.84;5134131;27;8825;-59
2022/11/04 08:06:41;;;;;;;;;1.00;0.75;;;;;10.86;74.86;98854.84;5132944;27;8926;-59
2022/11/04 08:09:09;;;;;;;;;0.00;0.00;;;;;10.85;75.05;98861.97;5132132;27;8845;-58
2022/11/04 08:11:37;;;;;;;;;1.50;0.50;;;;;10.88;74.93;98864.34;5134817;27;8857;-59
2022/11/04 08:14:04;;;;;;;;;0.25;0.25;;;;;10.96;74.78;98861.78;5136031;27;8833;-59
2022/11/04 08:16:33;;;;;;;;;0.00;0.00;;;;;11.11;74.37;98862.94;5135990;27;8825;-59
2022/11/04 08:19:01;;;;;;;;;0.00;0.00;;;;;11.34;73.89;98853.47;5136251;27;8821;-59
2022/11/04 08:21:29;;;;;;;;;1.00;1.00;;;;;11.53;73.53;98852.47;5135808;27;9555;-59
2022/11/04 08:23:57;;;;;;;;;1.00;1.00;;;;;11.69;73.12;98855.28;5136867;27;8868;-59
2022/11/04 08:26:24;;;;;;;;;0.00;0.00;;;;;11.81;73.31;98860.22;5136184;27;8817;-59
2022/11/04 08:28:53;;;;;;;;;0.00;0.00;;;;;11.89;72.50;98865.59;5136245;27;8844;-59
2022/11/04 08:31:22;;;;;;;;;0.25;0.25;;;;;11.95;72.52;98863.13;5134817;27;8868;-59
2022/11/04 08:33:50;;;;;;;;;0.00;0.00;;;;;12.01;72.53;98857.16;5135971;27;8833;-59
2022/11/04 08:36:18;;;;;;;;;1.00;1.00;;;;;12.01;72.42;98865.19;5134540;27;8957;-59
2022/11/04 08:38:46;;;;;;;;;0.00;0.00;;;;;12.00;72.73;98858.16;5133651;27;8976;-58
2022/11/04 08:41:14;;;;;;;;;0.00;0.00;;;;;11.99;72.64;98859.16;5132346;27;8810;-59
2022/11/04 08:43:42;;;;;;;;;0.50;0.50;;;;;11.98;73.04;98855.84;5133834;27;8844;-59
2022/11/04 08:46:09;;;;;;;;;0.50;0.00;;;;;11.97;73.05;98856.81;5132890;27;8874;-59
2022/11/04 08:48:37;;;;;;;;;1.00;1.00;;;;;11.92;72.96;98851.13;5132724;27;9503;-59
2022/11/04 08:51:05;;;;;;;;;0.75;0.75;;;;;11.90;72.83;98853.94;5133119;27;8837;-59
2022/11/04 08:53:33;;;;;;;;;0.00;0.00;;;;;11.88;72.85;98855.94;5132674;27;8868;-59
2022/11/04 08:56:01;;;;;;;;;0.25;0.25;;;;;11.88;72.71;98853.25;5134056;27;8999;-59
2022/11/04 08:58:29;;;;;;;;;0.00;0.00;;;;;11.95;72.37;98870.31;5133977;27;8841;-59
2022/11/04 09:00:57;;;;;;;;;0.00;0.00;;;;;12.01;72.53;98869.69;5133762;27;9518;-59
2022/11/04 09:03:24;;;;;;;;;0.00;0.00;;;;;12.08;72.34;98873.41;5134525;27;9515;-59
2022/11/04 09:05:52;;;;;;;;;0.00;0.00;;;;;12.16;72.66;98862.78;5133764;27;8833;-59
2022/11/04 09:08:20;;;;;;;;;0.00;0.00;;;;;12.19;72.56;98849.09;5134120;27;8846;-59
2022/11/04 09:10:48;;;;;;;;;0.00;0.00;;;;;12.20;72.27;98848.97;5134759;27;8945;-59
2022/11/04 09:13:16;;;;;;;;;0.00;0.00;;;;;12.17;72.39;98840.44;5134626;27;8879;-59
2022/11/04 09:15:44;;;;;;;;;0.00;0.00;;;;;12.12;72.62;98846.25;5133864;27;8838;-59
2022/11/04 09:18:15;;;;;;;;;0.00;0.00;;;;;12.09;72.19;98849.22;5132467;27;8840;-59
2022/11/04 09:20:43;;;;;;;;;0.00;0.00;;;;;12.11;72.48;98851.72;5132065;27;9051;-59
2022/11/04 09:23:11;;;;;;;;;0.75;0.75;;;;;12.13;72.48;98849.72;5131280;27;8825;-59
2022/11/04 09:25:39;;;;;;;;;0.00;0.00;;;;;12.16;72.57;98857.44;5132024;27;8853;-59
2022/11/04 09:28:07;;;;;;;;;0.00;0.00;;;;;12.21;72.34;98841.78;5131596;27;8848;-59
2022/11/04 09:30:36;;;;;;;;;1.00;1.00;;;;;12.26;72.05;98845.66;5130767;27;8844;-59
2022/11/04 09:33:04;;;;;;;;;0.00;0.00;;;;;12.32;71.34;98838.84;5131534;27;8843;-59
2022/11/04 09:35:32;;;;;;;;;0.25;0.25;;;;;12.38;71.98;98848.88;5130792;27;8822;-59
2022/11/04 09:38:00;;;;;;;;;0.75;0.75;;;;;12.45;71.47;98857.94;5131578;27;8868;-59
2022/11/04 09:40:28;;;;;;;;;0.00;0.00;;;;;12.53;71.61;98852.63;5133220;27;8821;-59
2022/11/04 09:42:57;;;;;;;;;0.00;0.00;;;;;12.62;71.45;98854.31;5134094;27;8837;-59
2022/11/04 09:45:25;;;;;;;;;0.00;0.00;;;;;12.78;71.10;98851.69;5135376;27;9519;-59
2022/11/04 09:47:53;;;;;;;;;0.00;0.00;;;;;13.25;69.64;98856.34;5135262;27;8860;-59
2022/11/04 09:50:21;;;;;;;;;0.00;0.00;;;;;13.92;68.08;98852.47;5134852;27;9191;-59
2022/11/04 09:52:48;;;;;;;;;0.00;0.00;;;;;14.55;66.53;98850.66;5134597;27;8840;-59
2022/11/04 09:55:17;;;;;;;;;0.00;0.00;;;;;15.12;65.81;98852.03;5133683;27;8813;-59
2022/11/04 09:57:45;;;;;;;;;0.00;0.00;;;;;15.54;65.53;98841.72;5133568;27;8849;-59
2022/11/04 10:00:13;;;;;;;;;0.00;0.00;;;;;16.01;64.68;98848.47;5134990;27;8829;-59
2022/11/04 10:02:41;;;;;;;;;0.75;0.00;;;;;16.50;63.94;98853.16;5135062;27;8825;-60
2022/11/04 10:05:09;;;;;;;;;0.00;0.00;;;;;17.01;63.09;98852.19;5134138;27;8941;-59
2022/11/04 10:07:39;;;;;;;;;0.00;0.00;;;;;17.42;62.63;98841.69;5134537;27;8840;-59
2022/11/04 10:10:07;;;;;;;;;0.00;0.00;;;;;17.81;61.77;98840.19;5134971;27;8953;-60
2022/11/04 10:12:35;;;;;;;;;0.00;0.00;;;;;18.14;61.44;98843.97;5135128;27;8830;-59
2022/11/04 10:15:03;;;;;;;;;2.00;1.80;;;;;18.51;60.82;98849.03;5134539;27;8977;-56
2022/11/04 10:17:31;;;;;;;;;0.60;0.00;;;;;18.71;60.61;98844.56;5134262;27;8880;-60
2022/11/04 10:19:59;;;;;;;;;0.00;0.00;;;;;18.66;61.03;98857.00;5133395;27;8906;-59
2022/11/04 10:22:27;;;;;;;;;0.00;0.00;;;;;18.55;61.31;98853.00;5132768;27;8825;-60
2022/11/04 10:24:56;;;;;;;;;0.60;0.60;;;;;18.27;62.43;98859.41;5133663;27;8914;-59
2022/11/04 10:27:23;;;;;;;;;0.00;0.00;;;;;17.92;63.25;98858.50;5132979;27;8856;-59
2022/11/04 10:29:51;;;;;;;;;0.00;0.00;;;;;17.69;64.26;98860.59;5133108;27;8830;-60
2022/11/04 10:32:20;;;;;;;;;0.60;0.20;;;;;17.50;63.93;98871.19;5133186;27;8960;-59
2022/11/04 10:34:49;;;;;;;;;0.00;0.00;;;;;17.36;64.46;98864.84;5133344;27;8914;-58
2022/11/04 10:37:16;;;;;;;;;0.00;0.00;;;;;16.96;64.95;98876.16;5133220;27;8826;-57
2022/11/04 10:39:44;;;;;;;;;0.00;0.00;;;;;16.44;66.21;98875.44;5132737;27;8838;-57
2022/11/04 10:42:12;;;;;;;;;0.20;0.20;;;;;16.04;66.67;98885.72;5133153;27;8833;-58
2022/11/04 10:44:41;;;;;;;;;0.00;0.00;;;;;15.64;67.50;98887.94;5132235;27;9215;-57
2022/11/04 10:47:09;;;;;;;;;1.80;1.80;;;;;15.30;67.83;98895.50;5131135;27;8825;-58
2022/11/04 10:49:37;;;;;;;;;1.00;0.00;;;;;14.98;68.60;98911.78;5132431;27;8841;-57
2022/11/04 10:52:04;;;;;;;;;0.00;0.00;;;;;14.77;68.99;98912.38;5132510;27;8918;-57
2022/11/04 10:54:32;;;;;;;;;0.00;0.00;;;;;14.67;69.12;98917.13;5131380;27;8817;-56
2022/11/04 10:57:01;;;;;;;;;0.00;0.00;;;;;14.71;69.35;98913.06;5131807;27;8914;-55
2022/11/04 10:59:30;;;;;;;;;0.25;0.25;;;;;14.94;68.15;98905.09;5132168;27;8822;-57
2022/11/04 11:01:58;;;;;;;;;0.25;0.25;;;;;15.13;68.08;98910.03;5132322;27;8845;-58
2022/11/04 11:04:26;;;;;;;;;3.00;3.00;;;;;15.23;67.44;98903.44;5132886;27;9530;-57
2022/11/04 11:06:54;;;;;;;;;0.00;0.00;;;;;15.28;67.48;98908.25;5131948;27;8899;-59
2022/11/04 11:09:27;;;;;;;;;0.00;0.00;;;;;15.33;66.98;98916.66;5131848;27;8860;-58
2022/11/04 11:11:55;;;;;;;;;0.00;0.00;;;;;15.45;66.40;98925.94;5132945;27;8845;-60
2022/11/04 11:14:22;;;;;;;;;0.00;0.00;;;;;15.51;66.58;98928.78;5132130;27;8863;-59
2022/11/04 11:16:50;;;;;;;;;0.00;0.00;;;;;15.62;66.39;98930.22;5132262;27;8830;-60
2022/11/04 11:19:18;;;;;;;;;1.00;1.00;;;;;15.67;66.07;98930.50;5132138;27;9555;-59
2022/11/04 11:21:48;;;;;;;;;0.00;0.00;;;;;15.68;65.69;98921.44;5132093;27;8830;-60
2022/11/04 11:24:16;;;;;;;;;1.00;0.75;;;;;15.69;66.44;98925.81;5131646;27;8878;-59
2022/11/04 11:26:48;;;;;;;;;0.00;0.00;;;;;15.68;66.04;98927.66;5132090;27;8844;-60
2022/11/04 11:29:16;;;;;;;;;1.00;0.25;;;;;15.68;66.13;98929.47;5129864;27;8968;-59
2022/11/04 11:31:43;;;;;;;;;1.00;1.00;;;;;15.63;65.84;98921.16;5132068;27;8829;-59
2022/11/04 11:34:12;;;;;;;;;1.00;1.00;;;;;15.62;66.22;98927.53;5131801;27;8834;-58
2022/11/04 11:36:40;;;;;;;;;0.00;0.00;;;;;15.54;65.99;98927.59;5131086;27;8833;-59
2022/11/04 11:39:08;;;;;;;;;1.50;0.50;;;;;15.47;65.72;98922.09;5131760;27;8846;-59
2022/11/04 11:41:36;;;;;;;;;1.00;1.00;;;;;15.36;66.45;98930.56;5131687;27;8818;-60
2022/11/04 11:44:11;;;;;;;;;1.00;1.00;;;;;15.23;66.74;98940.13;5131542;27;9583;-60
2022/11/04 11:46:41;;;;;;;;;0.50;0.50;;;;;15.10;67.06;98938.03;5135612;27;8825;-60
2022/11/04 11:49:09;;;;;;;;;1.00;0.25;;;;;14.99;67.17;98937.56;5136302;27;8838;-60
2022/11/04 11:51:36;;;;;;;;;1.00;1.00;;;;;14.85;67.32;98932.94;5136800;27;8847;-59
2022/11/04 11:54:04;;;;;;;;;1.00;1.00;;;;;14.74;67.21;98933.31;5135460;27;8838;-59
2022/11/04 11:56:32;;;;;;;;;2.00;0.50;;;;;14.68;67.63;98937.53;5135706;27;8909;-59
2022/11/04 11:59:21;;;;;;;;;0.00;0.00;;;;;14.65;67.64;98939.72;5134542;27;8864;-60
2022/11/04 12:02:09;;;;;;;;;0.00;0.00;;;;;14.59;67.67;98935.03;5134405;27;8846;-59
2022/11/04 12:04:37;;;;;;;;;0.00;0.00;;;;;14.54;67.76;98930.22;5132711;27;8838;-59
2022/11/04 12:07:26;;;;;;;;;0.00;0.00;;;;;14.48;67.83;98927.38;5131339;27;8896;-59
2022/11/04 12:10:14;;;;;;;;;0.00;0.00;;;;;14.41;67.79;98932.56;5130898;27;8922;-57
2022/11/04 12:13:01;;;;;;;;;0.00;0.00;;;;;14.36;67.68;98940.28;5131937;27;8845;-59
2022/11/04 12:15:30;;;;;;;;;0.00;0.00;;;;;14.29;67.85;98933.97;5133275;27;8841;-59
2022/11/04 12:17:57;;;;;;;;;0.00;0.00;;;;;14.26;67.81;98939.63;5133283;27;8817;-59
2022/11/04 12:20:26;;;;;;;;;0.00;0.00;;;;;14.23;68.12;98931.94;5133563;27;8968;-60